Time;durP1;ratioP1;P1;durP2;ratioP2;P2;SDS_P1;SDS_P2;PMS_P1;PMS_P2;Temp;Humidity;BMP_temperature;BMP_pressure;BME280_temperature;BME280_humidity;BME280_pressure;Samples;Min_cycle;Max_cycle;Signal;HPM_P1;HPM_P2
2022/03/08 00:01:50;;;;;;;2.50;0.98;;;22.10;56.70;;;;;;4952135;28;20306;-54
2022/03/08 00:04:20;;;;;;;2.22;1.17;;;22.10;56.70;;;;;;4952224;28;20833;-56
2022/03/08 00:06:51;;;;;;;2.75;1.10;;;22.10;56.80;;;;;;4951859;28;20195;-56
2022/03/08 00:09:21;;;;;;;2.28;1.25;;;22.10;56.70;;;;;;4951955;29;20660;-59
2022/03/08 00:11:54;;;;;;;1.92;1.10;;;22.20;56.80;;;;;;4951935;28;20254;-56
2022/03/08 00:14:24;;;;;;;2.08;0.93;;;22.20;57.00;;;;;;4951957;29;20254;-58
2022/03/08 00:16:55;;;;;;;2.22;1.00;;;22.20;57.00;;;;;;4950672;28;20191;-57
2022/03/08 00:19:26;;;;;;;2.60;1.00;;;22.20;56.90;;;;;;4951539;29;20199;-57
2022/03/08 00:21:56;;;;;;;2.50;1.13;;;22.30;56.90;;;;;;4951480;28;20223;-56
2022/03/08 00:24:27;;;;;;;3.58;1.30;;;22.30;56.80;;;;;;4951942;28;20819;-56
2022/03/08 00:27:00;;;;;;;2.00;1.00;;;22.40;56.90;;;;;;4951206;28;20202;-55
2022/03/08 00:29:30;;;;;;;2.03;1.27;;;22.40;56.90;;;;;;4951490;28;20258;-54
2022/03/08 00:32:01;;;;;;;2.38;1.13;;;22.40;56.90;;;;;;4952352;28;20274;-56
2022/03/08 00:34:31;;;;;;;2.28;0.93;;;22.50;56.70;;;;;;4951460;28;20552;-56
2022/03/08 00:37:02;;;;;;;2.08;1.00;;;22.50;56.70;;;;;;4952271;28;20226;-57
2022/03/08 00:39:33;;;;;;;1.83;1.15;;;22.50;56.70;;;;;;4951501;28;20203;-54
2022/03/08 00:42:05;;;;;;;2.88;1.40;;;22.60;56.80;;;;;;4951764;28;20226;-58
2022/03/08 00:44:36;;;;;;;3.20;1.10;;;22.60;56.90;;;;;;4951740;28;20207;-57
2022/03/08 00:47:07;;;;;;;3.63;1.33;;;22.60;56.80;;;;;;4951899;28;20203;-56
2022/03/08 00:49:39;;;;;;;2.05;1.20;;;22.70;56.80;;;;;;4950969;29;20199;-57
2022/03/08 00:52:11;;;;;;;3.45;1.20;;;22.70;56.80;;;;;;4951608;28;20223;-56
2022/03/08 00:54:41;;;;;;;4.10;1.30;;;22.70;56.80;;;;;;4950880;28;20203;-57
2022/03/08 00:57:14;;;;;;;3.38;1.15;;;22.80;56.80;;;;;;4951811;28;20247;-57
2022/03/08 00:59:44;;;;;;;2.95;1.52;;;22.80;56.80;;;;;;4952154;29;20254;-56
2022/03/08 01:02:15;;;;;;;3.83;1.42;;;22.80;56.80;;;;;;4950843;28;20273;-57
2022/03/08 01:04:46;;;;;;;3.67;1.30;;;22.80;56.80;;;;;;4951676;28;20254;-55
2022/03/08 01:07:16;;;;;;;3.45;1.30;;;22.90;56.80;;;;;;4950725;28;20236;-56
2022/03/08 01:09:47;;;;;;;2.42;1.17;;;22.90;56.90;;;;;;4950354;28;20255;-56
2022/03/08 01:12:19;;;;;;;5.90;1.40;;;22.90;56.80;;;;;;4950497;28;20218;-56
2022/03/08 01:14:50;;;;;;;1.98;1.10;;;22.90;56.70;;;;;;4950863;28;20706;-56
2022/03/08 01:17:21;;;;;;;2.10;1.00;;;23.00;56.70;;;;;;4950958;28;20265;-57
2022/03/08 01:19:51;;;;;;;3.83;1.38;;;23.00;56.60;;;;;;4950800;28;20605;-55
2022/03/08 01:22:22;;;;;;;3.85;1.38;;;23.00;56.60;;;;;;4950425;28;20285;-53
2022/03/08 01:24:53;;;;;;;3.17;1.15;;;23.00;56.60;;;;;;4950190;28;20211;-54
2022/03/08 01:27:25;;;;;;;2.83;1.35;;;23.10;56.60;;;;;;4950718;28;20199;-57
2022/03/08 01:29:56;;;;;;;3.97;1.27;;;23.10;56.60;;;;;;4950803;28;20199;-57
2022/03/08 01:32:27;;;;;;;2.72;1.30;;;23.10;56.50;;;;;;4950621;28;20274;-57
2022/03/08 01:34:57;;;;;;;2.15;1.33;;;23.20;56.50;;;;;;4950285;28;20203;-50
2022/03/08 01:37:28;;;;;;;3.72;1.45;;;23.20;56.50;;;;;;4950532;28;20718;-56
2022/03/08 01:39:58;;;;;;;3.63;1.52;;;23.20;56.50;;;;;;4950037;28;20195;-55
2022/03/08 01:42:31;;;;;;;4.68;1.48;;;23.30;56.50;;;;;;4950763;28;20678;-56
2022/03/08 01:45:02;;;;;;;2.88;1.20;;;23.30;56.50;;;;;;4950953;28;20269;-53
2022/03/08 01:47:32;;;;;;;4.55;1.30;;;23.30;56.50;;;;;;4950486;28;20216;-55
2022/03/08 01:50:04;;;;;;;3.83;1.50;;;23.30;56.50;;;;;;4950650;28;20266;-56
2022/03/08 01:52:35;;;;;;;4.38;1.30;;;23.30;56.40;;;;;;4949104;28;20289;-54
2022/03/08 01:55:06;;;;;;;3.58;1.60;;;23.30;56.30;;;;;;4950728;28;20721;-57
2022/03/08 01:57:38;;;;;;;4.32;1.90;;;23.40;56.40;;;;;;4950103;28;20265;-56
2022/03/08 02:00:12;;;;;;;2.20;1.33;;;23.40;56.50;;;;;;4950243;28;20258;-53
2022/03/08 02:02:43;;;;;;;3.85;1.63;;;23.40;56.50;;;;;;4949325;28;21364;-57
2022/03/08 02:05:14;;;;;;;4.53;1.40;;;23.40;56.30;;;;;;4949925;28;20261;-56
2022/03/08 02:07:46;;;;;;;4.57;1.90;;;23.40;56.30;;;;;;4950335;28;20195;-56
2022/03/08 02:10:16;;;;;;;3.67;1.40;;;23.50;56.30;;;;;;4949303;28;20207;-57
2022/03/08 02:12:49;;;;;;;4.13;1.50;;;23.50;56.30;;;;;;4949248;28;20219;-56
2022/03/08 02:15:21;;;;;;;2.85;1.50;;;23.50;56.20;;;;;;4948898;29;20195;-58
2022/03/08 02:17:52;;;;;;;2.83;1.35;;;23.50;56.20;;;;;;4950144;28;20222;-57
2022/03/08 02:20:23;;;;;;;2.80;1.40;;;23.50;56.10;;;;;;4949513;28;20822;-57
2022/03/08 02:22:55;;;;;;;5.22;1.45;;;23.60;56.10;;;;;;4950081;28;20234;-58
2022/03/08 02:25:26;;;;;;;4.78;1.60;;;23.60;56.00;;;;;;4949990;28;20246;-56
2022/03/08 02:27:58;;;;;;;4.40;1.40;;;23.70;56.00;;;;;;4949312;28;20203;-57
2022/03/08 02:30:30;;;;;;;3.17;1.70;;;23.70;56.10;;;;;;4949747;29;20562;-56
2022/03/08 02:33:00;;;;;;;5.15;1.63;;;23.70;56.10;;;;;;4949374;28;20261;-58
2022/03/08 02:35:33;;;;;;;4.25;1.63;;;23.70;56.10;;;;;;4949619;28;20190;-57
2022/03/08 02:38:08;;;;;;;3.92;1.40;;;23.80;56.10;;;;;;4949436;28;20195;-55
2022/03/08 02:40:41;;;;;;;3.70;1.20;;;23.80;56.10;;;;;;4950237;28;20202;-56
2022/03/08 02:43:13;;;;;;;4.95;1.50;;;23.80;56.10;;;;;;4949433;28;20314;-57
2022/03/08 02:45:44;;;;;;;4.07;1.70;;;23.90;56.10;;;;;;4949703;28;20195;-56
2022/03/08 02:48:14;;;;;;;3.35;1.45;;;23.90;56.00;;;;;;4949712;29;20576;-58
2022/03/08 02:50:45;;;;;;;6.45;1.83;;;23.90;56.00;;;;;;4949568;28;20258;-57
2022/03/08 02:53:17;;;;;;;3.70;1.30;;;23.90;56.00;;;;;;4949226;28;20650;-57
2022/03/08 02:55:48;;;;;;;2.53;1.45;;;24.00;56.00;;;;;;4972817;23;20226;-46
2022/03/08 02:58:19;;;;;;;3.67;1.58;;;24.00;55.90;;;;;;4968955;28;20191;-46
2022/03/08 03:00:50;;;;;;;2.95;1.30;;;24.00;55.90;;;;;;4969411;28;20198;-46
2022/03/08 03:03:21;;;;;;;4.30;1.38;;;24.00;55.80;;;;;;4968432;28;20225;-47
2022/03/08 03:05:51;;;;;;;2.90;1.33;;;24.10;55.80;;;;;;4967820;28;20202;-45
2022/03/08 03:08:24;;;;;;;3.67;1.35;;;24.10;55.80;;;;;;4968610;28;20538;-49
2022/03/08 03:10:54;;;;;;;4.20;1.40;;;24.10;55.80;;;;;;4967681;28;20198;-48
2022/03/08 03:13:25;;;;;;;4.53;1.60;;;24.20;55.80;;;;;;4968240;28;20276;-50
2022/03/08 03:15:55;;;;;;;2.58;1.30;;;24.20;55.80;;;;;;4968867;28;20202;-49
2022/03/08 03:18:26;;;;;;;2.53;1.50;;;24.20;55.70;;;;;;4972225;28;20205;-45
2022/03/08 03:20:56;;;;;;;5.05;1.55;;;24.20;55.70;;;;;;4971800;28;20198;-46
2022/03/08 03:23:29;;;;;;;5.05;1.42;;;24.30;55.70;;;;;;4971811;28;20305;-46
2022/03/08 03:25:59;;;;;;;3.92;1.40;;;24.30;55.60;;;;;;4972231;28;20214;-45
2022/03/08 03:28:30;;;;;;;5.72;1.90;;;24.30;55.50;;;;;;4972421;28;20198;-47
2022/03/08 03:31:01;;;;;;;3.97;1.52;;;24.30;55.50;;;;;;4972125;28;20206;-48
2022/03/08 03:33:31;;;;;;;4.25;2.05;;;24.40;55.50;;;;;;4972235;28;20297;-48
2022/03/08 03:36:02;;;;;;;3.75;1.25;;;24.40;55.40;;;;;;4972507;28;20261;-49
2022/03/08 03:38:34;;;;;;;4.10;1.90;;;24.40;55.40;;;;;;4971776;28;20654;-50
2022/03/08 03:41:05;;;;;;;3.60;1.40;;;24.50;55.40;;;;;;4971732;28;20608;-52
2022/03/08 03:43:36;;;;;;;5.22;1.70;;;24.50;55.40;;;;;;4971459;28;20285;-49
2022/03/08 03:46:07;;;;;;;3.42;1.25;;;24.50;55.30;;;;;;4971557;28;20202;-54
2022/03/08 03:48:38;;;;;;;4.05;1.52;;;24.50;55.20;;;;;;4971409;28;20199;-53
2022/03/08 03:51:08;;;;;;;2.83;1.40;;;24.60;55.20;;;;;;4972020;28;20283;-54
2022/03/08 03:53:41;;;;;;;4.95;1.58;;;24.60;55.10;;;;;;4971455;28;20218;-52
2022/03/08 04:55:47;;;;;;;3.10;1.20;;;25.30;54.30;;;;;;5477354;23;20238;-59
2022/03/08 04:58:17;;;;;;;3.38;1.52;;;25.30;54.40;;;;;;4951805;28;20250;-58
2022/03/08 05:00:48;;;;;;;3.38;1.40;;;25.40;54.40;;;;;;4950432;28;20199;-58
2022/03/08 05:03:18;;;;;;;3.33;1.60;;;25.40;54.30;;;;;;4963056;28;20637;-59
2022/03/08 05:05:49;;;;;;;3.88;1.40;;;25.50;54.30;;;;;;4970724;28;20194;-58
2022/03/08 05:08:20;;;;;;;3.75;1.35;;;25.50;54.20;;;;;;4970443;28;20746;-60
2022/03/08 05:10:52;;;;;;;2.97;1.40;;;25.50;54.10;;;;;;4970140;28;20257;-59
2022/03/08 05:13:23;;;;;;;3.78;1.48;;;25.50;54.00;;;;;;4969138;28;20214;-57
2022/03/08 05:15:53;;;;;;;3.55;1.40;;;25.60;54.00;;;;;;4970171;28;20603;-58
2022/03/08 05:18:24;;;;;;;3.25;1.40;;;25.60;53.90;;;;;;4969843;28;20249;-55
2022/03/08 05:20:55;;;;;;;4.68;1.50;;;25.60;54.00;;;;;;4970482;28;20601;-57
2022/03/08 05:23:25;;;;;;;4.13;1.50;;;25.60;53.90;;;;;;4969731;28;20226;-58
2022/03/08 05:25:58;;;;;;;2.95;1.40;;;25.60;53.90;;;;;;4970643;28;20191;-57
2022/03/08 05:28:28;;;;;;;2.92;1.45;;;25.70;53.90;;;;;;4969890;28;20273;-57
2022/03/08 05:30:59;;;;;;;3.45;1.40;;;25.70;53.80;;;;;;4969456;28;20265;-58
2022/03/08 05:33:29;;;;;;;3.58;1.45;;;25.70;53.80;;;;;;4969242;28;20222;-57
2022/03/08 05:36:00;;;;;;;3.38;1.58;;;25.70;53.80;;;;;;4970161;28;20202;-57
2022/03/08 05:38:30;;;;;;;2.30;1.40;;;25.80;53.90;;;;;;4969889;28;20198;-56
2022/03/08 05:41:03;;;;;;;2.92;1.20;;;25.80;53.90;;;;;;4969329;28;20190;-57
2022/03/08 05:43:34;;;;;;;4.20;1.75;;;25.80;53.80;;;;;;4969713;28;20277;-57
2022/03/08 05:46:04;;;;;;;2.85;1.38;;;25.80;53.80;;;;;;4969093;28;20254;-58
2022/03/08 05:48:35;;;;;;;3.65;1.48;;;25.80;53.80;;;;;;4969926;28;20249;-59
2022/03/08 05:51:06;;;;;;;3.50;1.83;;;25.80;53.70;;;;;;4968966;28;20280;-57
2022/03/08 05:53:36;;;;;;;4.45;1.50;;;25.90;53.70;;;;;;4969194;28;20222;-57
2022/03/08 05:56:10;;;;;;;5.28;1.80;;;25.90;53.60;;;;;;4994154;23;20283;-52
2022/03/08 05:58:41;;;;;;;4.07;1.85;;;25.90;53.60;;;;;;4988963;28;20197;-48
2022/03/08 06:01:12;;;;;;;3.17;1.42;;;25.90;53.60;;;;;;4988945;28;20256;-51
2022/03/08 06:03:42;;;;;;;4.50;1.85;;;25.90;53.60;;;;;;4988587;28;20221;-50
2022/03/08 06:06:13;;;;;;;3.45;1.42;;;25.90;53.60;;;;;;4989205;28;20198;-49
2022/03/08 06:08:44;;;;;;;3.28;1.77;;;25.90;53.60;;;;;;4988170;28;20220;-50
2022/03/08 06:11:16;;;;;;;4.53;1.65;;;25.90;53.50;;;;;;4989087;28;20198;-50
2022/03/08 06:13:47;;;;;;;4.68;1.83;;;25.90;53.50;;;;;;4988694;28;20295;-51
2022/03/08 06:16:17;;;;;;;4.43;2.03;;;25.90;53.50;;;;;;4988709;28;20227;-52
2022/03/08 06:18:48;;;;;;;3.42;1.33;;;25.90;53.50;;;;;;4989217;28;20528;-50
2022/03/08 06:21:19;;;;;;;3.95;1.70;;;25.90;53.50;;;;;;4988515;28;20237;-48
2022/03/08 06:23:49;;;;;;;3.97;1.58;;;25.90;53.50;;;;;;4987937;28;20233;-51
2022/03/08 06:26:22;;;;;;;2.85;1.40;;;25.90;53.50;;;;;;4987942;28;20256;-48
2022/03/08 06:28:52;;;;;;;2.90;1.40;;;25.90;53.50;;;;;;4988179;28;20197;-49
2022/03/08 06:31:23;;;;;;;3.17;1.58;;;25.90;53.40;;;;;;4987657;28;20201;-48
2022/03/08 06:33:53;;;;;;;3.08;1.33;;;25.90;53.40;;;;;;4988717;28;20705;-49
2022/03/08 06:36:24;;;;;;;3.08;1.52;;;25.90;53.40;;;;;;4987964;28;20244;-48
2022/03/08 06:38:55;;;;;;;2.75;1.48;;;25.90;53.40;;;;;;4988125;28;20198;-51
2022/03/08 06:41:27;;;;;;;3.45;1.50;;;25.90;53.40;;;;;;4987939;28;20193;-47
2022/03/08 06:43:58;;;;;;;3.85;1.73;;;25.90;53.40;;;;;;4987861;28;20235;-47
2022/03/08 06:46:29;;;;;;;3.50;1.85;;;25.90;53.40;;;;;;4989063;28;20964;-48
2022/03/08 06:48:59;;;;;;;4.65;1.55;;;25.90;53.50;;;;;;4989022;28;20617;-49
2022/03/08 06:51:30;;;;;;;4.57;1.45;;;25.90;53.40;;;;;;4987986;28;20252;-50
2022/03/08 06:54:00;;;;;;;3.78;1.17;;;25.90;53.40;;;;;;4990223;28;20217;-48
2022/03/08 06:56:33;;;;;;;2.25;1.40;;;25.90;53.40;;;;;;4973037;23;20293;-63
2022/03/08 06:59:04;;;;;;;2.97;1.45;;;25.90;53.40;;;;;;4953689;28;20215;-63
2022/03/08 07:01:34;;;;;;;2.28;1.50;;;25.90;53.40;;;;;;4953461;28;20608;-62
2022/03/08 07:04:05;;;;;;;3.15;1.52;;;25.80;53.40;;;;;;4947316;28;20235;-56
2022/03/08 07:06:35;;;;;;;2.67;1.35;;;25.80;53.40;;;;;;4935611;29;20251;-55
2022/03/08 07:09:06;;;;;;;2.45;1.45;;;25.80;53.30;;;;;;4935510;29;20250;-63
2022/03/08 07:11:40;;;;;;;1.90;1.23;;;25.80;53.40;;;;;;4935875;29;20259;-61
2022/03/08 07:14:15;;;;;;;1.95;1.17;;;25.80;53.50;;;;;;4935025;29;20589;-63
2022/03/08 07:16:46;;;;;;;2.55;1.20;;;25.80;53.40;;;;;;4934855;29;20559;-62
2022/03/08 07:19:17;;;;;;;3.65;1.50;;;25.80;53.50;;;;;;4934734;29;20250;-64
2022/03/08 07:21:48;;;;;;;2.55;1.27;;;25.70;53.50;;;;;;4937608;29;20199;-62
2022/03/08 07:24:19;;;;;;;3.22;1.48;;;25.70;53.50;;;;;;4934659;29;20279;-64
2022/03/08 07:26:52;;;;;;;2.80;1.20;;;25.70;53.50;;;;;;4931368;29;20222;-63
2022/03/08 07:29:22;;;;;;;1.88;1.25;;;25.70;53.60;;;;;;4937957;29;20203;-62
2022/03/08 07:31:53;;;;;;;3.08;1.50;;;25.70;53.60;;;;;;4934102;29;20195;-62
2022/03/08 07:34:24;;;;;;;2.20;1.30;;;25.70;53.60;;;;;;4941916;29;20244;-63
2022/03/08 07:36:54;;;;;;;2.67;1.38;;;25.60;53.50;;;;;;4952392;28;20629;-62
2022/03/08 07:39:25;;;;;;;2.78;1.40;;;25.60;53.50;;;;;;4938550;28;20263;-61
2022/03/08 07:41:57;;;;;;;2.60;1.38;;;25.60;54.20;;;;;;4934323;29;20635;-63
2022/03/08 07:44:28;;;;;;;2.50;1.20;;;25.60;53.50;;;;;;4934939;29;20235;-64
2022/03/08 07:46:59;;;;;;;3.60;1.58;;;25.50;53.40;;;;;;4935570;29;20207;-62
2022/03/08 07:49:29;;;;;;;4.10;1.55;;;25.50;53.50;;;;;;4935019;29;20196;-64
2022/03/08 07:52:00;;;;;;;2.78;1.38;;;25.50;53.50;;;;;;4935060;29;20250;-61
2022/03/08 08:00:04;;;;;;;3.33;1.70;;;25.40;53.50;;;;;;5192465;23;20238;-54
2022/03/08 08:02:35;;;;;;;3.42;1.45;;;25.40;53.60;;;;;;4967583;28;20306;-60
2022/03/08 08:05:06;;;;;;;2.78;1.30;;;25.40;53.70;;;;;;4972843;28;20229;-59
2022/03/08 08:07:37;;;;;;;2.75;1.63;;;25.40;53.70;;;;;;4944082;28;20204;-59
2022/03/08 08:10:08;;;;;;;2.53;1.40;;;25.30;53.70;;;;;;4953349;28;20610;-58
2022/03/08 08:12:39;;;;;;;3.17;1.33;;;25.30;53.70;;;;;;4951739;28;20265;-59
2022/03/08 08:15:12;;;;;;;3.47;1.58;;;25.30;53.70;;;;;;4953594;28;20203;-60
2022/03/08 08:17:43;;;;;;;2.53;1.48;;;25.30;53.80;;;;;;4952954;28;20211;-57
2022/03/08 08:20:14;;;;;;;3.38;1.50;;;25.30;53.80;;;;;;4951207;28;20199;-59
2022/03/08 08:22:44;;;;;;;2.33;1.48;;;25.20;53.70;;;;;;4952939;28;20219;-59
2022/03/08 08:25:15;;;;;;;2.90;1.40;;;25.20;53.80;;;;;;4949913;28;20227;-59
2022/03/08 08:27:46;;;;;;;2.17;1.13;;;25.20;53.80;;;;;;4950756;28;20621;-57
2022/03/08 08:30:19;;;;;;;2.83;1.42;;;25.10;53.80;;;;;;4952910;28;20206;-59
2022/03/08 08:32:50;;;;;;;2.63;1.35;;;25.10;53.80;;;;;;4947379;28;20223;-59
2022/03/08 08:35:21;;;;;;;3.90;1.50;;;25.10;53.80;;;;;;4950415;28;20198;-59
2022/03/08 08:37:51;;;;;;;3.28;1.35;;;25.10;53.70;;;;;;4952064;28;20203;-60
2022/03/08 08:40:22;;;;;;;1.95;1.40;;;25.10;53.80;;;;;;4952373;28;20639;-57
2022/03/08 08:42:52;;;;;;;3.03;1.52;;;25.00;53.70;;;;;;4951347;28;20218;-59
2022/03/08 08:45:29;;;;;;;2.63;1.20;;;25.00;53.70;;;;;;4951733;28;20297;-59
2022/03/08 08:48:00;;;;;;;3.72;1.65;;;24.90;53.70;;;;;;4950213;28;20202;-59
2022/03/08 08:50:31;;;;;;;3.75;1.40;;;24.90;53.80;;;;;;4951976;28;20195;-57
2022/03/08 08:53:01;;;;;;;2.25;1.30;;;24.90;53.80;;;;;;4953178;28;20219;-59
2022/03/08 08:55:33;;;;;;;2.85;1.50;;;24.90;53.80;;;;;;4952209;28;20610;-58
2022/03/08 08:58:04;;;;;;;2.35;1.20;;;24.90;53.80;;;;;;4948720;28;20685;-59
2022/03/08 09:00:37;;;;;;;2.05;1.10;;;24.80;53.80;;;;;;4948568;28;20199;-57
2022/03/08 09:03:10;;;;;;;2.25;1.30;;;24.80;54.50;;;;;;4948939;28;20690;-58
2022/03/08 09:05:40;;;;;;;2.90;1.42;;;24.80;53.90;;;;;;4948571;28;20922;-55
2022/03/08 09:08:11;;;;;;;2.05;1.27;;;24.80;54.00;;;;;;4949224;28;20629;-58
2022/03/08 09:10:41;;;;;;;4.63;1.50;;;24.70;54.00;;;;;;4948417;28;20195;-58
2022/03/08 09:13:12;;;;;;;2.55;1.40;;;24.70;54.00;;;;;;4948058;28;20270;-57
2022/03/08 09:15:45;;;;;;;2.33;1.30;;;24.70;54.10;;;;;;4945259;28;20779;-59
2022/03/08 09:18:15;;;;;;;2.10;1.25;;;24.70;54.10;;;;;;4948586;28;20203;-58
2022/03/08 09:20:46;;;;;;;2.40;1.25;;;24.70;54.00;;;;;;4948756;28;20205;-52
2022/03/08 09:23:17;;;;;;;2.00;1.23;;;24.60;53.90;;;;;;4947344;28;20234;-59
2022/03/08 09:25:48;;;;;;;1.88;1.23;;;24.60;53.90;;;;;;4946810;28;20230;-58
2022/03/08 09:28:18;;;;;;;2.25;1.20;;;24.60;54.00;;;;;;4948588;28;20194;-57
2022/03/08 09:30:51;;;;;;;3.00;1.38;;;24.50;53.90;;;;;;4947946;28;20191;-53
2022/03/08 09:33:22;;;;;;;2.78;1.33;;;24.50;53.90;;;;;;4944964;28;20274;-59
2022/03/08 09:35:52;;;;;;;2.92;1.20;;;24.50;54.00;;;;;;4948000;28;20214;-58
2022/03/08 09:38:23;;;;;;;3.00;1.10;;;24.50;54.00;;;;;;4947852;28;20199;-57
2022/03/08 09:40:55;;;;;;;2.30;1.40;;;24.40;53.90;;;;;;4948365;28;20473;-59
2022/03/08 09:43:26;;;;;;;1.92;1.30;;;24.40;54.00;;;;;;4948054;28;20218;-58
2022/03/08 09:45:58;;;;;;;2.05;1.17;;;24.30;54.60;;;;;;4946549;28;20229;-59
2022/03/08 09:48:29;;;;;;;2.72;1.30;;;24.30;54.00;;;;;;4947395;28;20738;-59
2022/03/08 09:51:03;;;;;;;2.55;1.42;;;24.30;54.00;;;;;;4948401;28;20277;-59
2022/03/08 09:53:35;;;;;;;3.13;1.33;;;24.30;54.00;;;;;;4948540;28;20222;-59
2022/03/08 09:56:06;;;;;;;1.88;1.27;;;24.30;54.00;;;;;;4948248;28;20203;-58
2022/03/08 09:58:39;;;;;;;2.72;1.30;;;24.20;54.00;;;;;;4948867;28;20207;-59
2022/03/08 10:01:12;;;;;;;2.00;1.30;;;24.20;53.90;;;;;;4948643;28;20234;-59
2022/03/08 10:03:44;;;;;;;2.10;1.25;;;24.20;53.90;;;;;;4948105;28;20274;-58
2022/03/08 10:06:15;;;;;;;2.55;1.17;;;24.20;54.00;;;;;;4947577;28;20797;-59
2022/03/08 10:08:45;;;;;;;1.98;1.27;;;24.20;54.00;;;;;;4948199;28;20561;-59
2022/03/08 10:11:17;;;;;;;2.08;1.02;;;24.10;53.90;;;;;;4949047;28;20943;-59
2022/03/08 10:13:50;;;;;;;2.78;1.33;;;24.10;54.00;;;;;;4949156;28;20218;-59
2022/03/08 10:16:26;;;;;;;2.55;1.25;;;24.10;54.00;;;;;;4950241;28;20234;-54
2022/03/08 10:18:58;;;;;;;2.45;1.20;;;24.00;53.90;;;;;;4949884;28;20221;-59
2022/03/08 10:21:36;;;;;;;2.38;1.17;;;24.00;54.00;;;;;;4950402;28;20655;-59
2022/03/08 10:24:14;;;;;;;2.08;1.27;;;24.00;54.00;;;;;;4950383;28;20298;-59
2022/03/08 10:26:48;;;;;;;1.73;1.10;;;24.00;54.00;;;;;;4952657;28;20313;-59
2022/03/08 10:29:26;;;;;;;2.10;1.13;;;23.90;54.00;;;;;;4954669;28;20202;-58
2022/03/08 10:32:10;;;;;;;1.98;1.00;;;23.90;54.00;;;;;;4954373;28;20266;-59
2022/03/08 10:34:42;;;;;;;1.67;1.20;;;23.90;54.10;;;;;;4953022;28;20214;-56
2022/03/08 10:37:14;;;;;;;3.00;1.45;;;23.80;54.00;;;;;;4952875;28;20209;-59
2022/03/08 10:39:55;;;;;;;2.53;1.20;;;23.80;54.00;;;;;;4953820;28;20217;-59
2022/03/08 10:42:27;;;;;;;2.28;1.10;;;23.80;54.00;;;;;;4954058;28;20223;-59
2022/03/08 10:45:05;;;;;;;2.38;0.98;;;23.70;54.00;;;;;;4953961;28;20226;-59
2022/03/08 10:47:44;;;;;;;2.28;1.23;;;23.70;54.10;;;;;;4953287;28;20198;-59
2022/03/08 10:50:16;;;;;;;2.35;1.10;;;23.70;54.10;;;;;;4953588;28;20202;-59
2022/03/08 10:52:49;;;;;;;2.50;1.40;;;23.70;54.10;;;;;;4953315;28;20214;-59
2022/03/08 10:55:21;;;;;;;2.25;1.15;;;23.70;54.10;;;;;;4953715;28;20747;-59
2022/03/08 10:57:54;;;;;;;2.05;1.10;;;23.60;54.10;;;;;;4954125;28;20202;-55
2022/03/08 11:00:26;;;;;;;1.70;1.05;;;23.60;54.10;;;;;;4953660;28;20207;-58
2022/03/08 11:03:00;;;;;;;1.75;1.20;;;23.50;54.10;;;;;;4953037;28;20709;-58
2022/03/08 11:05:32;;;;;;;2.40;1.33;;;23.50;54.10;;;;;;4953471;28;20289;-61
2022/03/08 11:08:03;;;;;;;1.75;1.20;;;23.50;54.10;;;;;;4956398;28;20195;-58
2022/03/08 11:10:35;;;;;;;1.70;1.10;;;23.50;54.10;;;;;;4956315;28;20194;-59
2022/03/08 11:13:06;;;;;;;2.58;1.23;;;23.50;54.20;;;;;;4954544;28;20215;-55
2022/03/08 11:15:38;;;;;;;2.22;1.08;;;23.40;54.10;;;;;;4954330;28;20203;-55
2022/03/08 11:18:15;;;;;;;1.98;1.20;;;23.40;54.20;;;;;;4955055;28;20273;-58
2022/03/08 11:20:47;;;;;;;1.88;1.30;;;23.40;54.80;;;;;;4954951;28;20711;-57
2022/03/08 11:23:18;;;;;;;1.70;1.33;;;23.30;54.20;;;;;;4954616;28;20223;-52
2022/03/08 11:25:49;;;;;;;3.05;1.17;;;23.30;54.20;;;;;;4954367;28;20231;-56
2022/03/08 11:28:21;;;;;;;1.33;0.95;;;23.30;54.20;;;;;;4950487;28;20191;-54
2022/03/08 11:30:54;;;;;;;2.40;1.20;;;23.30;54.30;;;;;;4944576;28;20191;-54
2022/03/08 11:33:41;;;;;;;2.45;1.17;;;23.30;54.30;;;;;;4944305;29;20274;-53
2022/03/08 11:39:39;;;;;;;1.83;1.00;;;23.20;54.30;;;;;;4944715;29;20190;-59
2022/03/08 11:42:27;;;;;;;1.15;0.90;;;23.20;54.30;;;;;;4944978;29;20202;-59
2022/03/08 11:45:02;;;;;;;2.47;1.40;;;23.10;54.30;;;;;;4937669;29;20199;-58
2022/03/08 11:47:44;;;;;;;1.77;1.05;;;23.10;54.30;;;;;;4948945;29;20209;-57
2022/03/08 11:50:28;;;;;;;2.00;1.10;;;23.00;54.30;;;;;;4954152;28;20659;-56
2022/03/08 11:53:13;;;;;;;1.80;0.98;;;23.00;54.30;;;;;;4953574;28;20215;-56
2022/03/08 11:55:51;;;;;;;1.92;0.95;;;23.00;54.30;;;;;;4953895;28;20203;-57
2022/03/08 11:58:23;;;;;;;1.33;1.02;;;23.00;54.50;;;;;;4954071;28;20277;-58
2022/03/08 12:00:55;;;;;;;1.38;1.00;;;23.00;54.40;;;;;;4953868;28;20198;-56
2022/03/08 12:03:41;;;;;;;1.88;1.27;;;22.90;54.30;;;;;;4954312;28;20222;-57
2022/03/08 12:06:19;;;;;;;1.25;0.80;;;22.90;54.40;;;;;;4954137;28;20230;-57
2022/03/08 12:08:50;;;;;;;1.23;0.90;;;22.90;54.40;;;;;;4956151;28;20199;-56
2022/03/08 12:11:35;;;;;;;1.08;0.82;;;22.80;54.30;;;;;;4953589;28;20194;-57
2022/03/08 12:21:29;;;;;;;1.98;1.10;;;22.80;54.40;;;;;;4953444;29;20182;-57
2022/03/08 12:24:03;;;;;;;1.15;1.00;;;22.70;54.40;;;;;;4953612;28;20211;-59
2022/03/08 12:26:36;;;;;;;2.55;1.38;;;22.70;54.40;;;;;;4953253;28;20700;-59
2022/03/08 12:29:12;;;;;;;1.60;1.05;;;22.60;54.40;;;;;;4944006;28;20223;-58
2022/03/08 12:32:14;;;;;;;1.00;0.88;;;22.70;54.50;;;;;;4935514;29;20205;-59
2022/03/08 12:34:46;;;;;;;1.38;1.10;;;22.60;54.50;;;;;;4934386;29;20234;-55
2022/03/08 12:37:18;;;;;;;1.13;0.98;;;22.60;54.40;;;;;;4935415;29;20219;-57
2022/03/08 12:39:56;;;;;;;1.23;1.08;;;22.60;54.50;;;;;;4934272;29;20199;-57
2022/03/08 12:42:30;;;;;;;1.23;1.10;;;22.60;54.50;;;;;;4935346;29;20761;-55
2022/03/08 12:45:04;;;;;;;1.48;1.10;;;22.50;54.40;;;;;;4953081;28;20245;-58
2022/03/08 12:47:36;;;;;;;1.90;0.98;;;22.50;54.50;;;;;;4953171;28;20199;-58
2022/03/08 12:50:10;;;;;;;0.80;0.80;;;22.50;54.40;;;;;;4952061;28;20734;-57
2022/03/08 12:52:46;;;;;;;1.48;1.00;;;22.50;54.50;;;;;;4952731;28;20776;-58
2022/03/08 12:55:21;;;;;;;1.23;1.00;;;22.40;54.40;;;;;;4952379;28;20207;-58
2022/03/08 12:57:57;;;;;;;2.30;1.20;;;22.40;54.50;;;;;;4953192;28;20265;-57
2022/03/08 13:00:34;;;;;;;1.70;1.00;;;22.40;54.50;;;;;;4952941;28;20210;-57
2022/03/08 13:03:06;;;;;;;1.25;0.90;;;22.40;54.60;;;;;;4952982;28;20225;-58
2022/03/08 13:05:37;;;;;;;1.98;1.25;;;22.30;54.50;;;;;;4952705;28;20226;-57
2022/03/08 13:08:10;;;;;;;1.85;1.27;;;22.30;54.60;;;;;;4952033;28;20726;-58
2022/03/08 13:10:46;;;;;;;1.58;1.00;;;22.30;54.60;;;;;;4952759;28;20250;-58
2022/03/08 13:13:17;;;;;;;1.30;0.90;;;22.30;54.60;;;;;;4952409;28;20310;-57
2022/03/08 13:15:49;;;;;;;0.90;0.90;;;22.30;54.60;;;;;;4952407;28;20199;-57
2022/03/08 13:18:24;;;;;;;2.10;1.05;;;22.30;54.60;;;;;;4952929;28;20195;-58
2022/03/08 13:20:55;;;;;;;1.10;0.93;;;22.30;54.60;;;;;;4952749;28;20202;-57
2022/03/08 13:23:27;;;;;;;1.48;0.88;;;22.20;54.60;;;;;;4951924;28;20781;-58
2022/03/08 13:26:00;;;;;;;1.10;0.90;;;22.20;54.70;;;;;;4951631;28;20230;-58
2022/03/08 13:28:32;;;;;;;0.80;0.80;;;22.20;54.70;;;;;;4941778;28;20606;-58
2022/03/08 13:31:04;;;;;;;1.50;0.70;;;22.20;54.70;;;;;;4933154;29;20728;-58
2022/03/08 13:33:36;;;;;;;1.27;0.90;;;22.20;54.70;;;;;;4932897;29;20349;-54
2022/03/08 13:36:08;;;;;;;1.77;1.13;;;22.20;54.70;;;;;;4932720;29;20199;-58
2022/03/08 13:38:40;;;;;;;1.23;0.90;;;22.20;54.70;;;;;;4944224;29;20349;-57
2022/03/08 13:41:18;;;;;;;1.55;1.10;;;22.10;54.70;;;;;;4951790;28;20237;-57
2022/03/08 13:43:50;;;;;;;1.50;0.80;;;22.10;54.70;;;;;;4951112;28;20234;-55
2022/03/08 13:46:24;;;;;;;0.98;0.85;;;22.10;54.70;;;;;;4951411;28;20242;-55
2022/03/08 13:49:00;;;;;;;1.30;0.93;;;22.10;54.80;;;;;;4951628;28;20214;-54
2022/03/08 13:51:34;;;;;;;1.33;0.90;;;22.10;54.80;;;;;;4951478;28;20203;-58
2022/03/08 13:54:06;;;;;;;1.60;1.10;;;22.10;54.80;;;;;;4951512;28;20765;-57
2022/03/08 13:56:48;;;;;;;1.10;0.80;;;22.00;54.80;;;;;;4951940;28;20221;-58
2022/03/08 13:59:28;;;;;;;1.35;0.85;;;22.10;54.80;;;;;;4974756;23;20238;-50
2022/03/08 14:02:02;;;;;;;1.40;0.90;;;22.00;54.80;;;;;;4970371;28;20201;-51
2022/03/08 14:04:33;;;;;;;1.25;0.90;;;22.00;54.90;;;;;;4951999;28;20202;-54
2022/03/08 14:07:04;;;;;;;0.65;0.65;;;22.00;54.90;;;;;;4951540;28;20367;-53
2022/03/08 14:09:35;;;;;;;1.13;1.02;;;22.00;54.90;;;;;;4951195;28;20663;-52
2022/03/08 14:12:10;;;;;;;1.40;0.90;;;22.00;54.90;;;;;;4932813;28;20203;-50
2022/03/08 14:14:41;;;;;;;1.70;0.90;;;22.00;54.90;;;;;;4932183;29;20719;-51
2022/03/08 14:17:11;;;;;;;1.27;0.90;;;21.90;54.90;;;;;;4931932;29;20207;-49
2022/03/08 14:19:47;;;;;;;1.23;1.00;;;21.90;54.90;;;;;;4932221;29;20203;-49
2022/03/08 14:22:18;;;;;;;1.10;0.80;;;22.00;55.00;;;;;;4932112;29;20251;-55
2022/03/08 14:25:02;;;;;;;1.30;1.05;;;21.90;54.90;;;;;;4949798;29;20195;-53
2022/03/08 14:27:52;;;;;;;1.00;0.80;;;21.90;54.90;;;;;;4951740;28;20223;-49
2022/03/08 14:30:25;;;;;;;0.80;0.77;;;21.90;55.00;;;;;;4945895;28;20199;-51